Catàleg de serveis del Meteocat
Campanya meteocatpedra

Dades de l'estació automàtica Tivissa

?
?
Resum diari 22:00 TU
Dades diàries de l'estació meteorològica
Temperatura mitjana 14.2 °C
Temperatura màxima 17.9 °C 13:14 TU
Temperatura mínima 11.6 °C 6:00 TU
Humitat relativa mitjana 63%
Precipitació acumulada 0.0 mm
Ratxa màxima del vent (10 m) 87.5 km/h - 112º 15:27 TU
Irradiació solar global 14.0 MJ/m2

El tram horari està expressat en Temps Universal (TU). Cal sumar una hora en horari d'hivern i dues en horari d'estiu per passar a l'hora oficial.

Tivissa

Metadades estació meteorol´gica
Municipi Tivissa
Comarca Ribera d'Ebre
Altitud 317 m
Data alta 26.03.2015
Estat actual Operativa
Dades de període
Període
TU
TM
°C
TX
°C
TN
°C
HRM
%
PPT
mm
VVM (10 m)
km/h
DVM (10 m)
graus
VVX (10 m)
km/h
RS
W/m2
00:00 - 00:30 12.6 12.6 12.5 81 0.0 7.9 112 18.7 0
00:30 - 01:00 12.6 12.6 12.5 80 0.0 8.3 112 20.2 0
01:00 - 01:30 12.5 12.5 12.4 79 0.0 8.6 103 18.0 0
01:30 - 02:00 12.4 12.4 12.3 80 0.0 6.1 89 19.4 0
02:00 - 02:30 12.3 12.4 12.2 80 0.0 9.4 97 20.9 0
02:30 - 03:00 12.2 12.2 12.2 79 0.0 7.6 77 16.9 0
03:00 - 03:30 12.1 12.1 12.0 80 0.0 9.4 69 23.0 0
03:30 - 04:00 12.0 12.0 11.9 79 0.0 8.6 83 21.6 0
04:00 - 04:30 11.9 12.0 11.8 79 0.0 6.5 90 15.8 0
04:30 - 05:00 11.7 11.7 11.6 79 0.0 7.2 83 18.4 0
05:00 - 05:30 11.7 11.7 11.6 79 0.0 7.2 97 19.8 1
05:30 - 06:00 11.6 11.7 11.6 80 0.0 7.9 95 18.4 14
06:00 - 06:30 11.7 11.8 11.6 79 0.0 8.3 102 21.6 36
06:30 - 07:00 11.9 12.1 11.8 76 0.0 7.2 75 20.9 72
07:00 - 07:30 12.2 12.2 12.1 71 0.0 7.6 98 18.7 46
07:30 - 08:00 12.1 12.3 12.0 69 0.0 8.3 93 22.0 68
08:00 - 08:30 12.8 13.3 12.3 66 0.0 6.8 56 27.4 171
08:30 - 09:00 13.4 13.6 13.3 61 0.0 13.7 67 29.2 181
09:00 - 09:30 14.1 14.7 13.6 55 0.0 18.4 92 57.6 277
09:30 - 10:00 14.6 15.1 14.4 50 0.0 20.2 106 47.9 315
10:00 - 10:30 15.4 15.9 15.1 46 0.0 25.2 100 51.5 458
10:30 - 11:00 16.6 17.0 15.8 43 0.0 17.3 109 45.4 596
11:00 - 11:30 16.4 16.8 16.2 44 0.0 19.1 101 39.2 414
11:30 - 12:00 16.6 16.8 16.5 44 0.0 21.6 97 45.7 469
12:00 - 12:30 16.8 16.9 16.6 44 0.0 27.7 108 58.0 510
12:30 - 13:00 17.0 17.4 16.7 46 0.0 34.9 114 56.9 748
13:00 - 13:30 17.5 17.9 17.1 48 0.0 40.7 104 78.1 805
13:30 - 14:00 17.1 17.4 16.8 50 0.0 31.7 115 67.7 478
14:00 - 14:30 16.9 17.0 16.7 52 0.0 32.8 113 64.8 496
14:30 - 15:00 17.0 17.2 16.8 47 0.0 34.6 111 63.4 452
15:00 - 15:30 17.1 17.2 16.8 51 0.0 39.6 103 87.5 419
15:30 - 16:00 16.8 16.9 16.7 53 0.0 36.7 106 70.2 304
16:00 - 16:30 16.6 16.7 16.6 51 0.0 33.1 104 66.2 202
16:30 - 17:00 16.4 16.6 16.2 50 0.0 31.0 102 71.3 125
17:00 - 17:30 15.7 16.1 15.4 56 0.0 36.4 102 70.9 68
17:30 - 18:00 15.4 15.5 15.3 59 0.0 32.0 105 70.6 49
18:00 - 18:30 14.9 15.3 14.6 59 0.0 22.7 114 50.0 17
18:30 - 19:00 14.4 14.6 14.0 64 0.0 24.5 115 52.6 0
19:00 - 19:30 13.6 13.9 13.5 70 0.0 26.6 107 50.0 0
19:30 - 20:00 13.8 14.1 13.6 64 0.0 36.4 107 73.1 0
20:00 - 20:30 14.2 14.2 14.1 60 0.0 33.5 108 64.8 0
20:30 - 21:00 14.2 14.2 14.1 61 0.0 33.5 106 60.8 0
21:00 - 21:30 14.1 14.2 13.9 62 0.0 25.9 108 61.6 0
21:30 - 22:00 13.9 13.9 13.7 65 0.0 23.0 108 48.6 0
22:00 - 22:30 13.5 13.6 13.5 69 0.0 22.7 105 56.9 0

Les dades en taronja només han passat un control de qualitat automàtic. Resta pendent la seva validació definitiva.